Cleves, Ohio
Current Conditions -  °F | °C
As of 1:52 PM on Monday 20 Oct 2014 (Local Time) from KCVG Reporting Station
Broken Clouds Broken Clouds  
Wind Chill: 61°   Ceiling: 20000
Heat Index: 61°   Visibility: 10mi
Dew Point: 49°   Wind: 15mph
Humidity: 64%   Direction: 190°S
Pressure: 29.9"   Gusts: 25mph
Location:  39.16°N, 84.75°W
Report Text: KCVG 201752Z 19013G22KT 10SM FEW025 SCT080 SCT130 BKN200 16/09 A2990 RMK AO2 SLP121 T01610094 10161 20089 58028
Loading
Personal Weather Stations






























Interactive Weather Map
Tropical Storm Tracking
New forecast layout! Learn more

10-Day Weather Forecast

Advertisements
Track Severe Weather on mobile